createdAt,value
2018-07-24T00:00:24.048Z,90.00
2018-07-24T00:02:52.899Z,90.00
2018-07-24T00:05:22.489Z,89.80
2018-07-24T00:07:52.076Z,89.80
2018-07-24T00:10:20.921Z,89.70
2018-07-24T00:12:49.768Z,89.10
2018-07-24T00:15:18.630Z,89.30
2018-07-24T00:17:47.480Z,89.00
2018-07-24T00:20:16.315Z,89.30
2018-07-24T00:22:45.151Z,89.90
2018-07-24T00:25:13.996Z,90.10
2018-07-24T00:27:42.835Z,89.40
2018-07-24T00:30:11.685Z,89.30
2018-07-24T00:32:40.524Z,89.00
2018-07-24T00:35:09.368Z,87.90
2018-07-24T00:37:38.216Z,87.90
2018-07-24T00:40:07.050Z,87.90
2018-07-24T00:42:35.897Z,88.40
2018-07-24T00:45:04.750Z,88.80
2018-07-24T00:47:33.600Z,89.10
2018-07-24T00:50:02.427Z,89.50
2018-07-24T00:52:31.281Z,90.20
2018-07-24T00:55:00.135Z,90.70
2018-07-24T00:57:28.974Z,91.00
2018-07-24T00:59:58.561Z,91.30
2018-07-24T01:02:27.399Z,91.50
2018-07-24T01:04:56.241Z,91.60
2018-07-24T01:07:25.086Z,91.90
2018-07-24T01:09:53.941Z,92.60
2018-07-24T01:12:23.520Z,93.10
2018-07-24T01:14:52.362Z,93.10
2018-07-24T01:17:21.209Z,93.10
2018-07-24T01:19:50.049Z,93.20
2018-07-24T01:22:18.884Z,92.90
2018-07-24T01:24:47.734Z,93.10
2018-07-24T01:27:16.572Z,93.40
2018-07-24T01:29:45.417Z,93.20
2018-07-24T01:32:14.250Z,93.50
2018-07-24T01:34:43.093Z,93.80
2018-07-24T01:37:11.932Z,93.30
2018-07-24T01:39:41.524Z,93.00
2018-07-24T01:42:10.379Z,92.70
2018-07-24T01:44:39.216Z,92.90
2018-07-24T01:47:08.057Z,93.10
2018-07-24T01:49:36.900Z,93.10
2018-07-24T01:52:06.501Z,92.80
2018-07-24T01:54:36.095Z,93.00
2018-07-24T01:57:04.945Z,92.50
2018-07-24T01:59:33.793Z,92.40
2018-07-24T02:02:03.380Z,92.60
2018-07-24T02:04:32.233Z,92.50
2018-07-24T02:07:01.068Z,92.40
2018-07-24T02:09:29.912Z,92.30
2018-07-24T02:11:58.754Z,92.30
2018-07-24T02:14:28.337Z,92.00
2018-07-24T02:16:57.185Z,92.30
2018-07-24T02:19:26.033Z,92.10
2018-07-24T02:21:54.888Z,91.90
2018-07-24T02:24:23.723Z,91.80
2018-07-24T02:26:52.571Z,91.90
2018-07-24T02:29:21.419Z,92.20
2018-07-24T02:31:50.325Z,91.80
2018-07-24T02:34:19.117Z,92.00
2018-07-24T02:36:47.957Z,92.10
2018-07-24T02:39:16.794Z,92.50
2018-07-24T02:41:45.632Z,92.90
2018-07-24T02:46:43.923Z,93.10
2018-07-24T02:49:12.753Z,93.10
2018-07-24T02:51:41.604Z,93.10
2018-07-24T02:54:10.452Z,93.10
2018-07-24T02:56:39.297Z,93.10
2018-07-24T02:59:08.881Z,93.20
2018-07-24T03:01:37.778Z,93.20
2018-07-24T03:04:06.551Z,93.40
2018-07-24T03:06:35.386Z,93.00
2018-07-24T03:09:04.233Z,93.10
2018-07-24T03:11:33.072Z,93.30
2018-07-24T03:14:01.918Z,93.20
2018-07-24T03:16:30.754Z,93.30
2018-07-24T03:18:59.602Z,93.30
2018-07-24T03:21:28.443Z,93.30
2018-07-24T03:23:57.283Z,93.30
2018-07-24T03:26:26.130Z,93.10
2018-07-24T03:28:54.979Z,93.20
2018-07-24T03:31:23.827Z,93.20
2018-07-24T03:33:52.660Z,93.20
2018-07-24T03:36:22.251Z,93.10
2018-07-24T03:38:51.108Z,93.10
2018-07-24T03:41:19.952Z,93.10
2018-07-24T03:43:48.792Z,93.20
2018-07-24T03:46:17.974Z,93.30
2018-07-24T03:48:46.811Z,93.30
2018-07-24T03:51:16.394Z,93.60
2018-07-24T03:53:45.231Z,93.70
2018-07-24T03:56:14.085Z,93.80
2018-07-24T03:58:42.937Z,93.90
2018-07-24T04:01:11.780Z,94.10
2018-07-24T04:03:40.628Z,94.20
2018-07-24T04:06:09.481Z,94.30
2018-07-24T04:08:38.329Z,94.30
2018-07-24T04:11:07.189Z,94.00
2018-07-24T04:13:36.031Z,93.70
2018-07-24T04:16:04.880Z,93.20
2018-07-24T04:18:33.719Z,92.90
2018-07-24T04:21:03.303Z,93.40
2018-07-24T04:23:32.154Z,93.80
2018-07-24T04:26:00.999Z,93.40
2018-07-24T04:28:29.884Z,93.10
2018-07-24T04:30:58.735Z,93.30
2018-07-24T04:33:27.539Z,93.40
2018-07-24T04:35:56.383Z,93.50
2018-07-24T04:38:25.237Z,93.60
2018-07-24T04:40:54.086Z,93.60
2018-07-24T04:43:22.935Z,93.50
2018-07-24T04:45:51.777Z,93.40
2018-07-24T04:48:20.655Z,93.40
2018-07-24T04:50:49.466Z,93.70
2018-07-24T04:53:18.314Z,93.50
2018-07-24T04:55:47.160Z,93.40
2018-07-24T04:58:16.013Z,93.60
2018-07-24T05:00:44.845Z,93.80
2018-07-24T05:03:14.487Z,93.60
2018-07-24T05:05:43.290Z,93.50
2018-07-24T05:08:12.116Z,93.00
2018-07-24T05:10:40.961Z,93.00
2018-07-24T05:13:09.818Z,92.90
2018-07-24T05:15:39.417Z,93.00
2018-07-24T05:18:08.264Z,92.80
2018-07-24T05:20:37.104Z,92.30
2018-07-24T05:23:06.685Z,92.30
2018-07-24T05:25:35.525Z,91.80
2018-07-24T05:28:04.376Z,91.30
2018-07-24T05:30:33.229Z,91.40
2018-07-24T05:33:02.086Z,91.00
2018-07-24T05:35:30.915Z,91.00
2018-07-24T05:37:59.762Z,90.90
2018-07-24T05:40:28.622Z,90.60
2018-07-24T05:42:57.476Z,90.70
2018-07-24T05:45:27.052Z,90.60
2018-07-24T05:47:55.893Z,90.50
2018-07-24T05:50:25.475Z,90.90
2018-07-24T05:52:54.313Z,91.30
2018-07-24T05:55:23.161Z,91.90
2018-07-24T05:57:52.001Z,92.10
2018-07-24T06:00:20.840Z,91.90
2018-07-24T06:02:49.679Z,91.80
2018-07-24T06:05:18.516Z,91.50
2018-07-24T06:07:47.384Z,91.50
2018-07-24T06:10:16.228Z,91.70
2018-07-24T06:12:45.816Z,91.80
2018-07-24T06:15:14.656Z,91.60
2018-07-24T06:17:43.511Z,91.80
2018-07-24T06:20:13.096Z,91.60
2018-07-24T06:22:41.953Z,91.40
2018-07-24T06:25:10.801Z,91.40
2018-07-24T06:27:40.377Z,91.30
2018-07-24T06:30:09.251Z,91.30
2018-07-24T06:32:38.096Z,91.20
2018-07-24T06:35:06.996Z,91.00
2018-07-24T06:37:35.805Z,91.10
2018-07-24T06:40:04.646Z,90.80
2018-07-24T06:42:33.483Z,90.90
2018-07-24T06:45:02.333Z,90.70
2018-07-24T06:47:31.179Z,91.00
2018-07-24T06:50:00.031Z,90.50
2018-07-24T06:52:28.869Z,90.50
2018-07-24T06:57:27.883Z,90.30
2018-07-24T06:59:56.728Z,90.10
2018-07-24T07:02:25.569Z,90.00
2018-07-24T07:04:55.199Z,89.60
2018-07-24T07:07:23.983Z,88.90
2018-07-24T07:09:52.836Z,88.80
2018-07-24T07:12:21.689Z,88.90
2018-07-24T07:14:50.535Z,87.50
2018-07-24T07:17:20.135Z,88.30
2018-07-24T07:19:49.721Z,87.80
2018-07-24T07:22:18.559Z,87.60
2018-07-24T07:24:47.400Z,88.00
2018-07-24T07:27:16.238Z,88.30
2018-07-24T07:29:45.082Z,89.10
2018-07-24T07:32:13.939Z,88.10
2018-07-24T07:34:42.770Z,87.90
2018-07-24T07:37:11.609Z,87.00
2018-07-24T07:39:40.450Z,86.60
2018-07-24T07:42:09.296Z,85.90
2018-07-24T07:44:38.146Z,85.90
2018-07-24T07:47:07.738Z,85.50
2018-07-24T07:49:36.590Z,85.30
2018-07-24T07:52:05.441Z,85.40
2018-07-24T07:54:35.030Z,83.80
2018-07-24T07:57:03.880Z,83.50
2018-07-24T07:59:32.729Z,82.60
2018-07-24T08:02:01.577Z,82.70
2018-07-24T08:04:30.407Z,83.50
2018-07-24T08:06:59.256Z,82.30
2018-07-24T08:09:28.110Z,82.50
2018-07-24T08:11:56.945Z,81.90
2018-07-24T08:14:26.531Z,81.20
2018-07-24T08:16:55.374Z,80.50
2018-07-24T08:19:24.222Z,81.10
2018-07-24T08:21:53.060Z,81.10
2018-07-24T08:24:21.904Z,80.40
2018-07-24T08:26:50.756Z,79.90
2018-07-24T08:29:19.603Z,79.90
2018-07-24T08:31:48.458Z,80.00
2018-07-24T08:34:17.309Z,79.70
2018-07-24T08:36:46.165Z,79.80
2018-07-24T08:39:15.023Z,79.20
2018-07-24T08:41:43.873Z,77.80
2018-07-24T08:44:12.716Z,77.40
2018-07-24T08:46:41.576Z,76.30
2018-07-24T08:49:10.448Z,75.90
2018-07-24T08:51:39.263Z,75.80
2018-07-24T08:54:08.238Z,74.80
2018-07-24T08:56:36.956Z,74.70
2018-07-24T08:59:06.545Z,75.40
2018-07-24T09:01:35.400Z,74.30
2018-07-24T09:04:04.244Z,75.00
2018-07-24T09:06:33.082Z,71.60
2018-07-24T09:09:01.929Z,72.70
2018-07-24T09:11:30.774Z,72.50
2018-07-24T09:13:59.623Z,72.30
2018-07-24T09:16:29.201Z,72.00
2018-07-24T09:18:58.041Z,69.90
2018-07-24T09:21:26.892Z,69.30
2018-07-24T09:23:55.760Z,68.60
2018-07-24T09:26:24.595Z,69.00
2018-07-24T09:28:53.445Z,69.60
2018-07-24T09:31:22.285Z,68.00
2018-07-24T09:33:51.135Z,67.40
2018-07-24T09:36:19.980Z,67.70
2018-07-24T09:38:48.824Z,66.30
2018-07-24T09:41:17.661Z,66.50
2018-07-24T09:43:46.498Z,67.10
2018-07-24T09:46:15.354Z,67.10
2018-07-24T09:48:44.194Z,66.10
2018-07-24T09:51:13.808Z,64.00
2018-07-24T09:53:42.670Z,64.20
2018-07-24T09:56:12.242Z,63.70
2018-07-24T09:58:41.080Z,64.50
2018-07-24T10:01:10.673Z,63.70
2018-07-24T10:03:39.507Z,61.70
2018-07-24T10:06:08.346Z,61.60
2018-07-24T10:08:37.192Z,62.00
2018-07-24T10:11:06.078Z,62.50
2018-07-24T10:13:34.883Z,60.50
2018-07-24T10:16:03.718Z,60.20
2018-07-24T10:18:32.571Z,61.20
2018-07-24T10:21:01.416Z,59.50
2018-07-24T10:23:30.265Z,57.80
2018-07-24T10:25:59.128Z,58.00
2018-07-24T10:28:27.973Z,57.30
2018-07-24T10:30:56.808Z,56.70
2018-07-24T10:33:25.644Z,56.70
2018-07-24T10:35:55.239Z,56.00
2018-07-24T10:38:24.089Z,56.40
2018-07-24T10:40:52.937Z,54.10
2018-07-24T10:43:21.774Z,55.20
2018-07-24T10:45:50.632Z,55.70
2018-07-24T10:48:19.462Z,54.80
2018-07-24T10:50:48.320Z,54.70
2018-07-24T10:53:17.166Z,54.50
2018-07-24T10:55:46.018Z,55.10
2018-07-24T10:58:14.853Z,53.70
2018-07-24T11:00:43.736Z,54.80
2018-07-24T11:03:12.557Z,53.50
2018-07-24T11:05:42.140Z,53.70
2018-07-24T11:10:40.412Z,52.50
2018-07-24T11:13:09.249Z,51.10
2018-07-24T11:15:38.116Z,50.60
2018-07-24T11:18:06.947Z,51.00
2018-07-24T11:20:35.804Z,51.90
2018-07-24T11:23:04.755Z,51.50
2018-07-24T11:25:33.463Z,49.50
2018-07-24T11:28:02.305Z,50.70
2018-07-24T11:30:31.158Z,50.80
2018-07-24T11:33:00.738Z,50.10
2018-07-24T11:35:29.644Z,49.40
2018-07-24T11:37:59.142Z,48.50
2018-07-24T11:40:27.995Z,49.50
2018-07-24T11:42:56.831Z,49.20
2018-07-24T11:45:25.665Z,48.80
2018-07-24T11:47:54.505Z,49.30
2018-07-24T11:50:23.365Z,48.90
2018-07-24T11:52:52.199Z,49.30
2018-07-24T11:55:21.786Z,49.70
2018-07-24T11:57:50.648Z,47.90
2018-07-24T12:00:19.476Z,46.90
2018-07-24T12:02:48.328Z,46.90
2018-07-24T12:05:17.174Z,47.80
2018-07-24T12:07:46.080Z,46.80
2018-07-24T12:10:14.874Z,46.50
2018-07-24T12:12:43.730Z,46.90
2018-07-24T12:15:12.635Z,46.10
2018-07-24T12:17:41.429Z,46.10
2018-07-24T12:20:10.288Z,45.90
2018-07-24T12:22:39.125Z,45.70
2018-07-24T12:25:08.002Z,45.80
2018-07-24T12:27:36.825Z,46.50
2018-07-24T12:30:05.676Z,45.70
2018-07-24T12:32:34.555Z,45.20
2018-07-24T12:35:03.366Z,44.70
2018-07-24T12:37:32.211Z,44.00
2018-07-24T12:40:01.052Z,44.50
2018-07-24T12:42:30.642Z,44.00
2018-07-24T12:44:59.473Z,45.40
2018-07-24T12:47:28.312Z,43.70
2018-07-24T12:49:57.146Z,43.40
2018-07-24T12:52:26.016Z,44.30
2018-07-24T12:54:54.840Z,44.00
2018-07-24T12:57:23.678Z,43.10
2018-07-24T12:59:52.527Z,43.40
2018-07-24T13:02:21.373Z,42.70
2018-07-24T13:04:50.222Z,42.30
2018-07-24T13:07:19.082Z,42.40
2018-07-24T13:09:47.899Z,42.40
2018-07-24T13:12:16.740Z,42.10
2018-07-24T13:14:45.583Z,41.70
2018-07-24T13:17:14.416Z,41.10
2018-07-24T13:19:43.996Z,40.80
2018-07-24T13:22:12.826Z,40.60
2018-07-24T13:24:41.728Z,41.70
2018-07-24T13:27:10.500Z,40.20
2018-07-24T13:29:40.094Z,39.30
2018-07-24T13:32:09.773Z,38.90
2018-07-24T13:34:38.515Z,38.80
2018-07-24T13:37:07.370Z,38.70
2018-07-24T13:39:36.218Z,39.20
2018-07-24T13:42:05.058Z,38.90
2018-07-24T13:44:34.648Z,39.20
2018-07-24T13:47:03.481Z,37.50
2018-07-24T13:49:32.326Z,38.10
2018-07-24T13:52:01.182Z,37.60
2018-07-24T13:54:30.053Z,36.80
2018-07-24T13:56:58.863Z,38.10
2018-07-24T13:59:27.735Z,37.60
2018-07-24T14:01:56.569Z,36.60
2018-07-24T14:04:25.410Z,37.90
2018-07-24T14:06:54.249Z,36.50
2018-07-24T14:09:23.100Z,36.00
2018-07-24T14:11:51.947Z,36.60
2018-07-24T14:14:20.812Z,36.50
2018-07-24T14:16:49.654Z,36.50
2018-07-24T14:19:18.496Z,38.50
2018-07-24T14:21:47.440Z,35.90
2018-07-24T14:24:16.182Z,34.90
2018-07-24T14:26:45.030Z,34.70
2018-07-24T14:29:13.868Z,35.30
2018-07-24T14:31:42.716Z,35.00
2018-07-24T14:34:11.864Z,34.90
2018-07-24T14:36:40.703Z,33.50
2018-07-24T14:39:09.538Z,34.20
2018-07-24T14:41:38.395Z,32.80
2018-07-24T14:44:07.241Z,33.60
2018-07-24T14:46:36.093Z,33.60
2018-07-24T14:49:04.940Z,33.40
2018-07-24T14:51:33.782Z,32.80
2018-07-24T14:54:02.617Z,32.60
2018-07-24T14:56:31.481Z,31.20
2018-07-24T14:59:00.333Z,31.10
2018-07-24T15:01:29.157Z,31.20
2018-07-24T15:03:58.976Z,32.00
2018-07-24T15:06:27.587Z,32.00
2018-07-24T15:08:56.425Z,32.30
2018-07-24T15:11:25.255Z,31.90
2018-07-24T15:13:54.100Z,32.70
2018-07-24T15:16:22.954Z,31.90
2018-07-24T15:18:51.786Z,31.70
2018-07-24T15:21:20.623Z,32.00
2018-07-24T15:23:49.454Z,32.20
2018-07-24T15:26:18.294Z,32.60
2018-07-24T15:28:47.189Z,32.40
2018-07-24T15:31:15.990Z,32.20
2018-07-24T15:33:44.842Z,31.90
2018-07-24T15:36:13.700Z,31.80
2018-07-24T15:38:42.546Z,32.30
2018-07-24T15:41:11.400Z,31.10
2018-07-24T15:43:40.238Z,30.90
2018-07-24T15:46:09.073Z,31.60
2018-07-24T15:48:37.931Z,31.10
2018-07-24T15:51:06.757Z,30.80
2018-07-24T15:53:35.608Z,32.20
2018-07-24T15:56:04.496Z,31.60
2018-07-24T15:58:34.038Z,31.40
2018-07-24T16:01:02.878Z,31.70
2018-07-24T16:03:31.718Z,31.00
2018-07-24T16:06:01.325Z,31.10
2018-07-24T16:08:30.143Z,31.70
2018-07-24T16:10:58.995Z,32.30
2018-07-24T16:13:28.572Z,31.30
2018-07-24T16:15:57.462Z,29.90
2018-07-24T16:18:26.982Z,30.60
2018-07-24T16:20:56.562Z,30.70
2018-07-24T16:23:25.397Z,30.10
2018-07-24T16:25:54.980Z,29.00
2018-07-24T16:28:23.814Z,29.20
2018-07-24T16:30:52.656Z,29.60
2018-07-24T16:33:21.496Z,29.90
2018-07-24T16:35:50.330Z,30.40
2018-07-24T16:38:19.161Z,29.80
2018-07-24T16:40:48.004Z,29.80
2018-07-24T16:43:16.862Z,30.50
2018-07-24T16:45:45.736Z,30.00
2018-07-24T16:48:14.543Z,31.30
2018-07-24T16:50:43.379Z,31.40
2018-07-24T16:53:12.220Z,30.00
2018-07-24T16:55:41.070Z,31.20
2018-07-24T16:58:09.905Z,30.60
2018-07-24T17:00:38.744Z,31.50
2018-07-24T17:03:07.629Z,32.70
2018-07-24T17:05:36.431Z,30.80
2018-07-24T17:08:06.016Z,32.70
2018-07-24T17:10:34.870Z,33.70
2018-07-24T17:13:04.464Z,33.00
2018-07-24T17:15:33.346Z,31.60
2018-07-24T17:18:02.166Z,33.20
2018-07-24T17:20:31.003Z,33.60
2018-07-24T17:22:59.842Z,32.90
2018-07-24T17:25:28.668Z,34.40
2018-07-24T17:27:57.515Z,35.10
2018-07-24T17:30:26.367Z,36.20
2018-07-24T17:32:55.208Z,37.00
2018-07-24T17:35:24.110Z,36.20
2018-07-24T17:37:52.896Z,34.20
2018-07-24T17:40:21.782Z,33.90
2018-07-24T17:42:50.590Z,34.70
2018-07-24T17:45:19.444Z,36.20
2018-07-24T17:47:48.286Z,37.30
2018-07-24T17:50:17.130Z,35.90
2018-07-24T17:52:45.962Z,37.50
2018-07-24T17:55:14.849Z,38.20
2018-07-24T17:57:43.657Z,38.30
2018-07-24T18:00:12.507Z,39.50
2018-07-24T18:02:41.355Z,39.30
2018-07-24T18:05:10.201Z,39.30
2018-07-24T18:07:39.047Z,38.80
2018-07-24T18:10:07.898Z,40.10
2018-07-24T18:12:36.738Z,38.90
2018-07-24T18:15:05.573Z,41.10
2018-07-24T18:17:34.438Z,41.60
2018-07-24T18:20:04.023Z,40.00
2018-07-24T18:22:32.917Z,43.60
2018-07-24T18:25:01.716Z,44.20
2018-07-24T18:27:30.558Z,46.20
2018-07-24T18:29:59.401Z,47.10
2018-07-24T18:32:28.250Z,47.00
2018-07-24T18:34:57.085Z,47.30
2018-07-24T18:37:25.927Z,46.70
2018-07-24T18:39:54.779Z,48.70
2018-07-24T18:42:24.367Z,50.20
2018-07-24T18:44:53.203Z,48.50
2018-07-24T18:47:22.049Z,50.40
2018-07-24T18:49:50.905Z,51.10
2018-07-24T18:52:19.849Z,51.10
2018-07-24T18:54:48.658Z,51.40
2018-07-24T18:57:17.496Z,52.00
2018-07-24T18:59:46.463Z,52.50
2018-07-24T19:02:16.018Z,53.80
2018-07-24T19:04:45.603Z,54.20
2018-07-24T19:07:14.457Z,56.20
2018-07-24T19:09:43.311Z,57.20
2018-07-24T19:12:13.058Z,57.50
2018-07-24T19:14:41.885Z,58.70
2018-07-24T19:17:11.483Z,58.90
2018-07-24T19:19:40.325Z,59.30
2018-07-24T19:22:09.163Z,62.60
2018-07-24T19:24:38.044Z,64.70
2018-07-24T19:27:07.139Z,65.40
2018-07-24T19:29:36.034Z,66.00
2018-07-24T19:32:05.055Z,67.00
2018-07-24T19:34:34.199Z,68.20
2018-07-24T19:37:03.035Z,68.70
2018-07-24T19:39:32.077Z,68.70
2018-07-24T19:42:01.849Z,68.80
2018-07-24T19:44:31.608Z,69.10
2018-07-24T19:47:01.434Z,69.30
2018-07-24T19:49:30.401Z,69.90
2018-07-24T19:51:59.275Z,68.60
2018-07-24T19:54:28.512Z,65.20
2018-07-24T19:56:57.372Z,63.90
2018-07-24T19:59:26.399Z,65.00
2018-07-24T20:01:55.515Z,62.30
2018-07-24T20:04:24.422Z,62.70
2018-07-24T20:06:53.497Z,63.60
2018-07-24T20:09:22.390Z,63.50
2018-07-24T20:11:51.318Z,64.00
2018-07-24T20:14:20.242Z,64.10
2018-07-24T20:16:49.351Z,64.10
2018-07-24T20:19:18.201Z,63.70
2018-07-24T20:21:47.221Z,63.40
2018-07-24T20:24:16.914Z,64.60
2018-07-24T20:26:45.729Z,65.70
2018-07-24T20:29:14.624Z,65.20
2018-07-24T20:31:43.491Z,66.20
2018-07-24T20:34:12.375Z,68.80
2018-07-24T20:36:41.264Z,70.50
2018-07-24T20:39:10.155Z,72.00
2018-07-24T20:41:39.047Z,74.50
2018-07-24T20:44:07.866Z,76.40
2018-07-24T20:46:36.727Z,78.10
2018-07-24T20:49:05.568Z,79.40
2018-07-24T20:51:34.411Z,79.30
2018-07-24T20:54:03.996Z,80.30
2018-07-24T20:56:33.593Z,79.80
2018-07-24T20:59:02.444Z,78.80
2018-07-24T21:01:31.279Z,78.80
2018-07-24T21:04:00.126Z,78.60
2018-07-24T21:06:28.970Z,79.50
2018-07-24T21:08:58.564Z,80.00
2018-07-24T21:11:27.407Z,80.50
2018-07-24T21:13:56.250Z,79.70
2018-07-24T21:16:25.828Z,76.50
2018-07-24T21:21:24.839Z,75.70
2018-07-24T21:23:53.706Z,75.50
2018-07-24T21:26:22.541Z,75.80
2018-07-24T21:28:51.397Z,76.00
2018-07-24T21:31:20.237Z,77.90
2018-07-24T21:33:49.063Z,79.60
2018-07-24T21:36:17.912Z,79.80
2018-07-24T21:38:47.525Z,79.50
2018-07-24T21:41:16.352Z,78.50
2018-07-24T21:43:45.194Z,77.70
2018-07-24T21:46:14.033Z,77.50
2018-07-24T21:48:42.869Z,77.60
2018-07-24T21:51:11.703Z,78.90
2018-07-24T21:53:40.544Z,79.90
2018-07-24T21:56:09.441Z,80.40
2018-07-24T21:58:38.271Z,80.80
2018-07-24T22:01:07.121Z,81.00
2018-07-24T22:03:35.962Z,80.90
2018-07-24T22:06:04.812Z,81.10
2018-07-24T22:08:33.666Z,81.10
2018-07-24T22:11:02.495Z,81.00
2018-07-24T22:13:31.340Z,81.50
2018-07-24T22:16:00.198Z,81.40
2018-07-24T22:18:29.043Z,81.10
2018-07-24T22:20:58.631Z,81.00
2018-07-24T22:23:28.209Z,81.10
2018-07-24T22:25:57.039Z,80.90
2018-07-24T22:28:26.620Z,80.90
2018-07-24T22:30:55.467Z,81.00
2018-07-24T22:33:24.317Z,80.90
2018-07-24T22:35:53.179Z,81.80
2018-07-24T22:38:22.016Z,81.70
2018-07-24T22:40:51.603Z,82.90
2018-07-24T22:43:20.447Z,83.50
2018-07-24T22:45:49.290Z,83.90
2018-07-24T22:48:18.875Z,84.70
2018-07-24T22:50:47.725Z,84.50
2018-07-24T22:53:16.569Z,84.10
2018-07-24T22:55:45.425Z,84.70
2018-07-24T22:58:14.266Z,83.30
2018-07-24T23:00:43.111Z,83.20
2018-07-24T23:03:11.950Z,83.20
2018-07-24T23:05:40.801Z,83.20
2018-07-24T23:08:09.642Z,82.30
2018-07-24T23:10:38.491Z,83.70
2018-07-24T23:13:07.334Z,85.60
2018-07-24T23:15:36.197Z,86.10
2018-07-24T23:18:05.020Z,85.80
2018-07-24T23:20:33.857Z,84.80
2018-07-24T23:23:02.725Z,83.80
2018-07-24T23:25:31.532Z,83.30
2018-07-24T23:28:01.116Z,83.00
2018-07-24T23:30:29.960Z,82.60
2018-07-24T23:32:58.798Z,84.40
2018-07-24T23:35:27.631Z,85.20
2018-07-24T23:37:56.475Z,85.40
2018-07-24T23:42:55.484Z,85.30
2018-07-24T23:45:24.351Z,84.80
2018-07-24T23:47:53.215Z,84.00
2018-07-24T23:50:22.061Z,83.30
2018-07-24T23:52:50.903Z,82.90
2018-07-24T23:55:19.752Z,82.30
2018-07-24T23:57:48.603Z,82.00
